createdAt,value
2022-12-25T00:01:54.831Z,98559.81
2022-12-25T00:04:22.074Z,98567.75
2022-12-25T00:06:49.660Z,98568.59
2022-12-25T00:09:17.059Z,98570.41
2022-12-25T00:11:44.752Z,98575.75
2022-12-25T00:14:12.104Z,98579.38
2022-12-25T00:16:39.695Z,98575.75
2022-12-25T00:19:07.608Z,98583.69
2022-12-25T00:21:35.178Z,98587.34
2022-12-25T00:24:03.486Z,98590.00
2022-12-25T00:26:31.766Z,98590.00
2022-12-25T00:28:59.162Z,98590.00
2022-12-25T00:31:27.137Z,98600.63
2022-12-25T00:33:54.767Z,98600.63
2022-12-25T00:36:23.067Z,98616.56
2022-12-25T00:38:50.678Z,98605.94
2022-12-25T00:41:39.791Z,98616.56
2022-12-25T00:44:08.193Z,98625.56
2022-12-25T00:46:36.689Z,98617.59
2022-12-25T00:49:04.496Z,98629.19
2022-12-25T00:51:32.915Z,98630.88
2022-12-25T00:54:00.291Z,98636.19
2022-12-25T00:56:28.093Z,98639.81
2022-12-25T00:58:55.808Z,98637.16
2022-12-25T01:01:23.545Z,98654.13
2022-12-25T01:03:50.943Z,98655.75
2022-12-25T01:06:18.552Z,98660.09
2022-12-25T01:09:04.313Z,98658.41
2022-12-25T01:11:32.298Z,98664.75
2022-12-25T01:13:59.622Z,98659.44
2022-12-25T01:16:27.664Z,98666.38
2022-12-25T01:18:55.320Z,98670.06
2022-12-25T01:21:22.986Z,98675.38
2022-12-25T01:23:52.450Z,98674.34
2022-12-25T01:26:23.040Z,98675.38
2022-12-25T01:28:52.375Z,98673.75
2022-12-25T01:31:22.688Z,98675.38
2022-12-25T01:33:50.027Z,98667.41
2022-12-25T01:36:26.911Z,98675.38
2022-12-25T01:38:54.449Z,98672.72
2022-12-25T01:41:24.474Z,98679.88
2022-12-25T01:44:04.009Z,98683.34
2022-12-25T01:46:32.285Z,98686.81
2022-12-25T01:49:05.094Z,98691.31
2022-12-25T01:51:45.730Z,98701.13
2022-12-25T01:54:17.324Z,98705.59
2022-12-25T01:56:48.125Z,98710.91
2022-12-25T01:59:19.463Z,98712.56
2022-12-25T02:01:47.587Z,98716.22
2022-12-25T02:04:25.008Z,98713.56
2022-12-25T02:06:53.731Z,98703.13
2022-12-25T02:09:21.898Z,98708.25
2022-12-25T02:11:58.869Z,98705.59
2022-12-25T02:14:31.263Z,98695.97
2022-12-25T02:17:13.572Z,98691.69
2022-12-25T02:20:11.963Z,98709.25
2022-12-25T02:23:04.003Z,98711.91
2022-12-25T02:25:48.093Z,98712.94
2022-12-25T02:28:34.199Z,98713.75
2022-12-25T02:31:10.774Z,98707.63
2022-12-25T02:34:33.787Z,98725.19
2022-12-25T02:37:22.240Z,98718.25
2022-12-25T02:40:17.903Z,98723.56
2022-12-25T02:43:13.651Z,98717.38
2022-12-25T02:46:10.568Z,98702.31
2022-12-25T02:49:02.107Z,98710.28
2022-12-25T02:51:53.229Z,98707.63
2022-12-25T02:54:44.993Z,98704.97
2022-12-25T02:57:35.763Z,98712.94
2022-12-25T03:00:25.739Z,98718.25
2022-12-25T03:03:14.179Z,98720.91
2022-12-25T03:06:02.332Z,98712.09
2022-12-25T03:08:43.078Z,98714.72
2022-12-25T03:11:31.188Z,98711.25
2022-12-25T03:14:20.696Z,98709.63
2022-12-25T03:16:50.814Z,98709.63
2022-12-25T03:19:40.060Z,98715.94
2022-12-25T03:22:28.329Z,98712.44
2022-12-25T03:25:14.851Z,98711.63
2022-12-25T03:27:44.364Z,98724.06
2022-12-25T03:30:31.048Z,98732.88
2022-12-25T03:33:37.116Z,98725.91
2022-12-25T03:36:28.626Z,98716.94
2022-12-25T03:39:23.367Z,98720.59
2022-12-25T03:42:16.520Z,98720.59
2022-12-25T03:45:27.231Z,98734.06
2022-12-25T03:48:15.762Z,98732.22
2022-12-25T03:51:19.962Z,98740.19
2022-12-25T03:54:12.477Z,98739.38
2022-12-25T03:56:59.738Z,98739.38
2022-12-25T03:59:45.899Z,98747.34
2022-12-25T04:02:32.138Z,98749.16
2022-12-25T04:05:18.444Z,98736.91
2022-12-25T04:08:04.271Z,98747.53
2022-12-25T04:10:50.558Z,98755.47
2022-12-25T04:13:36.599Z,98752.00
2022-12-25T04:16:23.184Z,98756.47
2022-12-25T04:19:09.608Z,98759.13
2022-12-25T04:21:55.371Z,98767.09
2022-12-25T04:24:41.139Z,98767.09
2022-12-25T04:27:27.141Z,98773.38
2022-12-25T04:30:12.812Z,98773.38
2022-12-25T04:32:58.982Z,98789.19
2022-12-25T04:35:44.988Z,98786.66
2022-12-25T04:38:12.500Z,98786.66
2022-12-25T04:40:39.811Z,98778.88
2022-12-25T04:43:07.318Z,98779.69
2022-12-25T04:45:35.199Z,98789.50
2022-12-25T04:48:02.764Z,98782.34
2022-12-25T04:50:30.047Z,98784.19
2022-12-25T04:52:57.573Z,98784.19
2022-12-25T04:55:24.815Z,98792.81
2022-12-25T04:57:52.435Z,98794.63
2022-12-25T05:00:19.917Z,98794.63
2022-12-25T05:02:47.584Z,98786.66
2022-12-25T05:05:15.762Z,98786.66
2022-12-25T05:07:43.342Z,98781.34
2022-12-25T05:10:11.067Z,98783.03
2022-12-25T05:12:38.604Z,98789.31
2022-12-25T05:15:06.301Z,98793.81
2022-12-25T05:17:33.994Z,98790.16
2022-12-25T05:20:01.873Z,98795.47
2022-12-25T05:22:30.110Z,98793.66
2022-12-25T05:24:57.381Z,98796.47
2022-12-25T05:27:25.012Z,98801.78
2022-12-25T05:29:52.251Z,98794.63
2022-12-25T05:32:20.435Z,98797.28
2022-12-25T05:34:47.705Z,98799.13
2022-12-25T05:37:15.461Z,98806.25
2022-12-25T05:39:42.888Z,98804.44
2022-12-25T05:42:10.465Z,98811.56
2022-12-25T05:44:37.685Z,98820.38
2022-12-25T05:47:06.039Z,98824.81
2022-12-25T05:49:33.359Z,98828.34
2022-12-25T05:52:00.876Z,98829.16
2022-12-25T05:54:28.122Z,98825.50
2022-12-25T05:56:55.719Z,98824.69
2022-12-25T05:59:22.975Z,98827.19
2022-12-25T06:01:50.640Z,98827.19
2022-12-25T06:04:17.992Z,98812.88
2022-12-25T06:06:45.737Z,98809.56
2022-12-25T06:09:13.442Z,98820.03
2022-12-25T06:11:41.343Z,98835.16
2022-12-25T06:14:15.234Z,98838.63
2022-12-25T06:16:43.166Z,98844.75
2022-12-25T06:19:10.434Z,98853.72
2022-12-25T06:21:38.075Z,98853.72
2022-12-25T06:24:05.556Z,98859.88
2022-12-25T06:26:33.183Z,98863.53
2022-12-25T06:29:00.459Z,98863.34
2022-12-25T06:31:28.339Z,98859.03
2022-12-25T06:33:55.679Z,98864.34
2022-12-25T06:36:25.807Z,98870.50
2022-12-25T06:38:54.060Z,98882.94
2022-12-25T06:41:23.800Z,98890.91
2022-12-25T06:43:53.068Z,98895.41
2022-12-25T06:46:22.394Z,98893.56
2022-12-25T06:48:50.174Z,98897.03
2022-12-25T06:51:29.537Z,98892.56
2022-12-25T06:53:57.678Z,98899.69
2022-12-25T06:56:28.667Z,98908.47
2022-12-25T06:59:05.487Z,98918.13
2022-12-25T07:01:48.587Z,98913.78
2022-12-25T07:04:25.223Z,98908.47
2022-12-25T07:06:52.786Z,98921.75
2022-12-25T07:09:20.057Z,98924.41
2022-12-25T07:11:47.720Z,98942.84
2022-12-25T07:14:23.858Z,98945.34
2022-12-25T07:16:52.286Z,98951.47
2022-12-25T07:19:19.776Z,98969.69
2022-12-25T07:21:47.449Z,98971.53
2022-12-25T07:24:21.980Z,98976.50
2022-12-25T07:26:50.921Z,98978.97
2022-12-25T07:29:19.582Z,98975.13
2022-12-25T07:31:48.140Z,98976.16
2022-12-25T07:34:17.425Z,98976.81
2022-12-25T07:36:45.040Z,98978.66
2022-12-25T07:39:12.687Z,98982.78
2022-12-25T07:41:40.354Z,98995.03
2022-12-25T07:44:07.606Z,98996.34
2022-12-25T07:46:35.219Z,98984.09
2022-12-25T07:49:02.520Z,98982.91
2022-12-25T07:51:30.196Z,98981.72
2022-12-25T07:53:57.643Z,98984.38
2022-12-25T07:56:25.556Z,98985.69
2022-12-25T07:58:52.936Z,98973.22
2022-12-25T08:01:24.219Z,98979.84
2022-12-25T08:03:53.657Z,98979.47
2022-12-25T08:06:22.685Z,98976.66
2022-12-25T08:08:49.966Z,98985.28
2022-12-25T08:11:17.547Z,98989.41
2022-12-25T08:13:44.815Z,98982.91
2022-12-25T08:16:12.474Z,98980.91
2022-12-25T08:18:40.325Z,98977.25
2022-12-25T08:21:11.226Z,98981.38
2022-12-25T08:23:40.855Z,98989.19
2022-12-25T08:26:11.433Z,98982.22
2022-12-25T08:28:39.115Z,98997.81
2022-12-25T08:31:13.135Z,98976.56
2022-12-25T08:33:40.551Z,98970.88
2022-12-25T08:36:10.104Z,98974.19
2022-12-25T08:38:37.881Z,98968.88
2022-12-25T08:41:05.947Z,98960.72
2022-12-25T08:43:33.206Z,98964.19
2022-12-25T08:46:01.332Z,98957.88
2022-12-25T08:48:29.338Z,98965.66
2022-12-25T08:50:57.093Z,98965.66
2022-12-25T08:53:24.532Z,98975.13
2022-12-25T08:56:04.351Z,98989.44
2022-12-25T08:58:31.731Z,98998.22
2022-12-25T09:00:59.989Z,99001.69
2022-12-25T09:03:27.424Z,99011.19
2022-12-25T09:05:55.315Z,99003.38
2022-12-25T09:08:22.630Z,99002.34
2022-12-25T09:10:50.239Z,99007.03
2022-12-25T09:13:17.730Z,99007.88
2022-12-25T09:15:45.367Z,99015.00
2022-12-25T09:18:12.665Z,99011.34
2022-12-25T09:20:40.280Z,99015.84
2022-12-25T09:23:13.532Z,99012.81
2022-12-25T09:25:41.933Z,99014.81
2022-12-25T09:28:09.184Z,99016.50
2022-12-25T09:30:36.962Z,99021.63
2022-12-25T09:33:04.252Z,99018.97
2022-12-25T09:35:31.938Z,99017.97
2022-12-25T09:38:00.140Z,99021.44
2022-12-25T09:40:30.973Z,99024.75
2022-12-25T09:42:59.445Z,99018.63
2022-12-25T09:45:35.913Z,99025.94
2022-12-25T09:48:03.942Z,99029.59
2022-12-25T09:50:46.578Z,99038.22
2022-12-25T09:53:26.758Z,99031.25
2022-12-25T09:56:16.820Z,99032.91
2022-12-25T09:58:44.928Z,99038.72
2022-12-25T10:01:12.543Z,99035.88
2022-12-25T10:04:04.621Z,99019.06
2022-12-25T10:07:03.172Z,99023.22
2022-12-25T10:09:49.428Z,99024.88
2022-12-25T10:12:47.167Z,99026.50
2022-12-25T10:15:21.621Z,99019.19
2022-12-25T10:18:11.303Z,99017.38
2022-12-25T10:20:54.027Z,99011.88
2022-12-25T10:23:37.060Z,99011.53
2022-12-25T10:26:22.265Z,99011.53
2022-12-25T10:29:01.705Z,99004.19
2022-12-25T10:31:34.315Z,98997.69
2022-12-25T10:34:03.225Z,99004.84
2022-12-25T10:36:31.156Z,99005.66
2022-12-25T10:38:58.793Z,99001.00
2022-12-25T10:42:10.387Z,98993.84
2022-12-25T10:44:38.023Z,98996.50
2022-12-25T10:47:05.936Z,98992.81
2022-12-25T10:49:42.511Z,98980.16
2022-12-25T10:52:21.615Z,98984.50
2022-12-25T10:54:49.416Z,98981.84
2022-12-25T10:57:20.082Z,98981.84
2022-12-25T10:59:50.387Z,98982.31
2022-12-25T11:02:20.360Z,98975.84
2022-12-25T11:04:48.785Z,98982.31
2022-12-25T11:07:19.006Z,98974.16
2022-12-25T11:10:20.933Z,98966.84
2022-12-25T11:12:48.463Z,98962.53
2022-12-25T11:15:40.287Z,98960.19
2022-12-25T11:18:25.907Z,98960.19
2022-12-25T11:20:58.835Z,98958.19
2022-12-25T11:23:28.906Z,98943.91
2022-12-25T11:26:08.026Z,98954.34
2022-12-25T11:28:38.655Z,98955.84
2022-12-25T11:31:12.966Z,98956.50
2022-12-25T11:33:52.726Z,98958.78
2022-12-25T11:36:24.620Z,98958.59
2022-12-25T11:38:52.367Z,98961.72
2022-12-25T11:41:23.206Z,98955.66
2022-12-25T11:43:56.281Z,98959.34
2022-12-25T11:46:46.122Z,98958.97
2022-12-25T11:49:19.976Z,98962.28
2022-12-25T11:51:52.003Z,98961.25
2022-12-25T11:54:26.791Z,98949.25
2022-12-25T11:56:56.196Z,98943.56
2022-12-25T11:59:40.197Z,98945.22
2022-12-25T12:02:25.967Z,98942.19
2022-12-25T12:05:19.040Z,98948.16
2022-12-25T12:07:55.507Z,98944.47
2022-12-25T12:10:36.131Z,98946.50
2022-12-25T12:13:18.931Z,98944.47
2022-12-25T12:15:48.618Z,98941.19
2022-12-25T12:18:28.596Z,98950.81
2022-12-25T12:21:06.764Z,98945.31
2022-12-25T12:23:48.713Z,98937.53
2022-12-25T12:26:25.527Z,98935.50
2022-12-25T12:28:58.249Z,98933.00
2022-12-25T12:31:47.091Z,98930.19
2022-12-25T12:34:50.088Z,98933.84
2022-12-25T12:37:27.800Z,98926.88
2022-12-25T12:39:56.055Z,98928.50
2022-12-25T12:42:28.988Z,98921.16
2022-12-25T12:45:06.243Z,98935.50
2022-12-25T12:47:48.886Z,98934.66
2022-12-25T12:50:41.011Z,98926.31
2022-12-25T12:53:23.454Z,98926.66
2022-12-25T12:55:52.483Z,98933.44
2022-12-25T12:58:37.556Z,98936.13
2022-12-25T13:01:26.466Z,98928.13
2022-12-25T13:04:18.441Z,98925.66
2022-12-25T13:07:10.234Z,98931.00
2022-12-25T13:10:18.025Z,98931.00
2022-12-25T13:12:46.956Z,98929.97
2022-12-25T13:15:14.856Z,98931.81
2022-12-25T13:17:46.760Z,98933.66
2022-12-25T13:20:31.283Z,98936.50
2022-12-25T13:22:58.800Z,98934.66
2022-12-25T13:25:27.347Z,98938.34
2022-12-25T13:27:57.495Z,98941.81
2022-12-25T13:30:25.711Z,98941.81
2022-12-25T13:32:53.517Z,98939.31
2022-12-25T13:35:23.312Z,98931.34
2022-12-25T13:37:51.204Z,98934.22
2022-12-25T13:40:26.137Z,98937.69
2022-12-25T13:43:00.540Z,98927.22
2022-12-25T13:45:30.543Z,98935.38
2022-12-25T13:48:09.392Z,98949.53
2022-12-25T13:50:37.484Z,98942.53
2022-12-25T13:53:16.309Z,98938.25
2022-12-25T13:55:48.991Z,98930.91
2022-12-25T13:58:45.207Z,98931.72
2022-12-25T14:01:16.401Z,98930.91
2022-12-25T14:03:46.580Z,98926.56
2022-12-25T14:06:25.293Z,98919.63
2022-12-25T14:08:55.592Z,98914.28
2022-12-25T14:11:25.272Z,98918.59
2022-12-25T14:13:58.636Z,98915.28
2022-12-25T14:16:27.267Z,98923.28
2022-12-25T14:18:58.542Z,98924.28
2022-12-25T14:21:33.834Z,98931.25
2022-12-25T14:24:01.744Z,98932.94
2022-12-25T14:26:32.028Z,98932.09
2022-12-25T14:29:05.706Z,98936.59
2022-12-25T14:31:34.321Z,98939.88
2022-12-25T14:34:04.058Z,98933.75
2022-12-25T14:36:33.620Z,98928.41
2022-12-25T14:39:04.847Z,98922.28
2022-12-25T14:41:38.111Z,98914.94
2022-12-25T14:44:33.653Z,98900.59
2022-12-25T14:47:20.424Z,98889.97
2022-12-25T14:49:52.905Z,98891.41
2022-12-25T14:52:27.755Z,98891.25
2022-12-25T14:55:05.250Z,98912.53
2022-12-25T14:57:39.315Z,98919.16
2022-12-25T15:00:21.164Z,98922.44
2022-12-25T15:02:50.557Z,98929.41
2022-12-25T15:05:39.073Z,98939.31
2022-12-25T15:08:10.239Z,98939.63
2022-12-25T15:10:59.460Z,98933.66
2022-12-25T15:13:27.974Z,98940.22
2022-12-25T15:16:19.426Z,98944.19
2022-12-25T15:18:48.856Z,98948.13
2022-12-25T15:21:26.944Z,98942.16
2022-12-25T15:23:55.882Z,98937.47
2022-12-25T15:26:24.684Z,98939.56
2022-12-25T15:28:52.107Z,98938.75
2022-12-25T15:31:26.116Z,98922.78
2022-12-25T15:33:55.515Z,98922.59
2022-12-25T15:36:24.490Z,98919.75
2022-12-25T15:38:52.611Z,98912.78
2022-12-25T15:41:50.763Z,98909.09
2022-12-25T15:44:18.321Z,98904.38
2022-12-25T15:46:46.142Z,98908.09
2022-12-25T15:49:15.369Z,98899.69
2022-12-25T15:51:44.048Z,98895.41
2022-12-25T15:54:11.771Z,98874.09
2022-12-25T15:56:44.566Z,98877.75
2022-12-25T15:59:13.796Z,98884.75
2022-12-25T16:01:48.070Z,98881.06
2022-12-25T16:04:15.568Z,98884.75
2022-12-25T16:06:43.536Z,98879.44
2022-12-25T16:09:15.347Z,98874.72
2022-12-25T16:11:43.122Z,98871.69
2022-12-25T16:14:10.666Z,98870.03
2022-12-25T16:16:38.697Z,98878.03
2022-12-25T16:19:06.486Z,98880.69
2022-12-25T16:21:42.796Z,98871.91
2022-12-25T16:24:10.229Z,98878.22
2022-12-25T16:26:37.821Z,98882.72
2022-12-25T16:29:07.474Z,98888.88
2022-12-25T16:31:36.577Z,98885.22
2022-12-25T16:34:06.060Z,98885.00
2022-12-25T16:36:33.781Z,98885.22
2022-12-25T16:39:01.053Z,98875.38
2022-12-25T16:41:28.609Z,98874.56
2022-12-25T16:43:55.841Z,98869.88
2022-12-25T16:46:23.530Z,98863.06
2022-12-25T16:48:50.838Z,98876.38
2022-12-25T16:51:20.330Z,98865.72
2022-12-25T16:53:48.190Z,98863.06
2022-12-25T16:56:20.435Z,98870.41
2022-12-25T16:58:48.155Z,98872.06
2022-12-25T17:01:18.597Z,98870.22
2022-12-25T17:03:47.273Z,98866.75
2022-12-25T17:06:24.296Z,98866.75
2022-12-25T17:08:53.135Z,98860.78
2022-12-25T17:11:24.262Z,98859.56
2022-12-25T17:13:51.810Z,98865.06
2022-12-25T17:16:22.812Z,98856.09
2022-12-25T17:19:01.908Z,98849.09
2022-12-25T17:21:35.428Z,98840.47
2022-12-25T17:24:05.044Z,98841.31
2022-12-25T17:26:33.298Z,98833.50
2022-12-25T17:29:01.036Z,98813.84
2022-12-25T17:31:28.808Z,98806.06
2022-12-25T17:33:56.437Z,98801.94
2022-12-25T17:36:24.792Z,98795.41
2022-12-25T17:38:52.877Z,98813.22
2022-12-25T17:41:21.443Z,98813.41
2022-12-25T17:43:48.879Z,98803.97
2022-12-25T17:46:19.405Z,98803.97
2022-12-25T17:48:47.562Z,98812.94
2022-12-25T17:51:17.872Z,98809.66
2022-12-25T17:53:49.773Z,98810.28
2022-12-25T17:56:18.211Z,98812.94
2022-12-25T17:58:54.894Z,98819.94
2022-12-25T18:01:23.950Z,98813.78
2022-12-25T18:03:52.072Z,98809.66
2022-12-25T18:06:23.304Z,98807.63
2022-12-25T18:08:50.648Z,98811.31
2022-12-25T18:11:21.784Z,98818.47
2022-12-25T18:13:52.140Z,98816.81
2022-12-25T18:16:22.263Z,98811.31
2022-12-25T18:18:52.517Z,98799.00
2022-12-25T18:21:21.875Z,98802.69
2022-12-25T18:23:50.227Z,98809.66
2022-12-25T18:26:18.776Z,98813.34
2022-12-25T18:28:48.181Z,98813.97
2022-12-25T18:31:20.679Z,98818.28
2022-12-25T18:33:49.015Z,98812.94
2022-12-25T18:36:20.111Z,98797.38
2022-12-25T18:38:48.965Z,98795.69
2022-12-25T18:41:17.591Z,98798.38
2022-12-25T18:43:53.619Z,98808.00
2022-12-25T18:46:25.158Z,98815.38
2022-12-25T18:48:54.533Z,98812.72
2022-12-25T18:51:22.566Z,98805.34
2022-12-25T18:53:49.956Z,98794.06
2022-12-25T18:56:18.363Z,98787.28
2022-12-25T18:58:46.925Z,98770.66
2022-12-25T19:01:20.852Z,98771.50
2022-12-25T19:03:49.155Z,98773.34
2022-12-25T19:06:22.439Z,98777.81
2022-12-25T19:08:49.783Z,98782.13
2022-12-25T19:11:19.192Z,98784.63
2022-12-25T19:13:46.776Z,98785.63
2022-12-25T19:16:14.698Z,98781.31
2022-12-25T19:18:42.772Z,98781.31
2022-12-25T19:21:11.185Z,98783.78
2022-12-25T19:23:39.305Z,98776.00
2022-12-25T19:26:08.601Z,98766.16
2022-12-25T19:28:36.901Z,98759.19
2022-12-25T19:31:07.384Z,98766.97
2022-12-25T19:33:38.082Z,98762.69
2022-12-25T19:36:08.653Z,98769.66
2022-12-25T19:38:36.175Z,98762.47
2022-12-25T19:41:13.096Z,98753.50
2022-12-25T19:43:41.767Z,98742.84
2022-12-25T19:46:21.000Z,98734.22
2022-12-25T19:48:48.857Z,98733.41
2022-12-25T19:51:27.047Z,98741.56
2022-12-25T19:53:58.592Z,98735.44
2022-12-25T19:56:28.585Z,98744.41
2022-12-25T19:58:56.794Z,98736.25
2022-12-25T20:01:28.237Z,98735.44
2022-12-25T20:03:56.739Z,98729.28
2022-12-25T20:06:30.380Z,98726.81
2022-12-25T20:09:02.520Z,98710.00
2022-12-25T20:11:31.490Z,98715.34
2022-12-25T20:13:59.209Z,98712.03
2022-12-25T20:16:26.863Z,98710.38
2022-12-25T20:18:54.349Z,98705.03
2022-12-25T20:21:23.250Z,98704.22
2022-12-25T20:23:52.166Z,98709.56
2022-12-25T20:26:22.858Z,98708.75
2022-12-25T20:28:50.460Z,98711.41
2022-12-25T20:31:21.833Z,98706.06
2022-12-25T20:33:49.593Z,98707.88
2022-12-25T20:36:18.904Z,98706.06
2022-12-25T20:38:46.355Z,98698.28
2022-12-25T20:41:27.496Z,98687.81
2022-12-25T20:43:56.378Z,98685.78
2022-12-25T20:46:25.343Z,98673.50
2022-12-25T20:48:53.074Z,98678.81
2022-12-25T20:51:23.960Z,98674.50
2022-12-25T20:53:51.573Z,98676.34
2022-12-25T20:56:24.205Z,98671.84
2022-12-25T20:58:59.828Z,98668.16
2022-12-25T21:01:30.074Z,98666.50
2022-12-25T21:03:58.175Z,98656.72
2022-12-25T21:06:26.470Z,98664.88
2022-12-25T21:08:54.047Z,98669.38
2022-12-25T21:11:21.968Z,98671.41
2022-12-25T21:13:49.894Z,98673.03
2022-12-25T21:16:21.420Z,98673.84
2022-12-25T21:18:50.515Z,98661.56
2022-12-25T21:21:18.491Z,98633.28
2022-12-25T21:23:46.385Z,98615.69
2022-12-25T21:26:26.592Z,98610.38
2022-12-25T21:28:57.210Z,98615.69
2022-12-25T21:31:25.568Z,98627.16
2022-12-25T21:33:54.764Z,98638.63
2022-12-25T21:36:28.818Z,98636.16
2022-12-25T21:38:59.106Z,98638.63
2022-12-25T21:41:28.403Z,98638.63
2022-12-25T21:43:56.100Z,98650.28
2022-12-25T21:46:24.361Z,98635.31
2022-12-25T21:48:52.164Z,98625.31
2022-12-25T21:51:41.314Z,98631.66
2022-12-25T21:54:09.263Z,98615.06
2022-12-25T21:56:44.027Z,98621.03
2022-12-25T21:59:17.594Z,98629.19
2022-12-25T22:01:46.899Z,98624.69
2022-12-25T22:04:15.923Z,98614.03
2022-12-25T22:07:03.328Z,98606.25
2022-12-25T22:09:30.889Z,98605.44
2022-12-25T22:12:17.694Z,98609.91
2022-12-25T22:14:56.821Z,98610.75
2022-12-25T22:17:48.678Z,98615.25
2022-12-25T22:20:19.052Z,98616.09
2022-12-25T22:22:47.285Z,98615.47
2022-12-25T22:25:16.212Z,98602.16
2022-12-25T22:27:45.779Z,98605.63
2022-12-25T22:30:16.825Z,98608.47
2022-12-25T22:32:44.816Z,98590.88
2022-12-25T22:35:13.267Z,98585.72
2022-12-25T22:37:41.824Z,98582.88
2022-12-25T22:40:11.931Z,98589.03
2022-12-25T22:42:39.587Z,98589.84
2022-12-25T22:45:07.429Z,98572.88
2022-12-25T22:47:35.122Z,98575.53
2022-12-25T22:50:02.362Z,98569.38
2022-12-25T22:52:29.991Z,98575.91
2022-12-25T22:54:58.237Z,98563.81
2022-12-25T22:57:25.827Z,98565.66
2022-12-25T22:59:53.329Z,98560.34
2022-12-25T23:02:22.000Z,98560.50
2022-12-25T23:04:49.859Z,98570.16
2022-12-25T23:07:17.489Z,98581.97
2022-12-25T23:09:45.216Z,98575.03
2022-12-25T23:12:32.949Z,98563.56
2022-12-25T23:15:00.268Z,98568.03
2022-12-25T23:17:46.466Z,98571.75
2022-12-25T23:20:33.481Z,98569.06
2022-12-25T23:23:20.383Z,98567.41
2022-12-25T23:26:06.343Z,98575.41
2022-12-25T23:28:56.046Z,98576.44
2022-12-25T23:31:27.140Z,98565.78
2022-12-25T23:33:54.837Z,98561.50
2022-12-25T23:36:22.383Z,98565.97
2022-12-25T23:38:50.035Z,98559.81
2022-12-25T23:41:17.278Z,98559.00
2022-12-25T23:43:44.822Z,98557.34
2022-12-25T23:46:12.296Z,98547.75
2022-12-25T23:48:39.926Z,98542.22
2022-12-25T23:51:07.976Z,98528.28
2022-12-25T23:53:35.625Z,98523.78
2022-12-25T23:56:03.311Z,98506.38
2022-12-25T23:58:30.977Z,98506.38
